sensor_id;sensor_type;location;lat;lon;timestamp;P1;durP1;ratioP1;P2;durP2;ratioP2
9436;SDS011;4757;59.334;18.034;2023-09-30T00:02:01;12.83;;;9.33;;
9436;SDS011;4757;59.334;18.034;2023-09-30T00:04:31;13.25;;;8.93;;
9436;SDS011;4757;59.334;18.034;2023-09-30T00:06:58;13.32;;;8.38;;
9436;SDS011;4757;59.334;18.034;2023-09-30T00:09:26;13.75;;;8.93;;
9436;SDS011;4757;59.334;18.034;2023-09-30T00:11:54;13.48;;;8.90;;
9436;SDS011;4757;59.334;18.034;2023-09-30T00:14:22;12.40;;;8.90;;
9436;SDS011;4757;59.334;18.034;2023-09-30T00:16:49;13.50;;;8.85;;
9436;SDS011;4757;59.334;18.034;2023-09-30T00:19:17;10.98;;;8.85;;
9436;SDS011;4757;59.334;18.034;2023-09-30T00:21:44;12.00;;;8.70;;
9436;SDS011;4757;59.334;18.034;2023-09-30T00:24:12;14.88;;;8.80;;
9436;SDS011;4757;59.334;18.034;2023-09-30T00:26:40;12.48;;;9.07;;
9436;SDS011;4757;59.334;18.034;2023-09-30T00:29:08;12.15;;;8.75;;
9436;SDS011;4757;59.334;18.034;2023-09-30T00:31:37;11.88;;;8.60;;
9436;SDS011;4757;59.334;18.034;2023-09-30T00:34:05;12.25;;;8.68;;
9436;SDS011;4757;59.334;18.034;2023-09-30T00:36:32;15.60;;;9.57;;
9436;SDS011;4757;59.334;18.034;2023-09-30T00:38:59;10.93;;;8.52;;
9436;SDS011;4757;59.334;18.034;2023-09-30T00:41:26;13.27;;;8.68;;
9436;SDS011;4757;59.334;18.034;2023-09-30T00:43:54;10.40;;;8.52;;
9436;SDS011;4757;59.334;18.034;2023-09-30T00:48:48;12.20;;;8.23;;
9436;SDS011;4757;59.334;18.034;2023-09-30T00:51:16;10.17;;;7.03;;
9436;SDS011;4757;59.334;18.034;2023-09-30T00:53:44;10.88;;;7.78;;
9436;SDS011;4757;59.334;18.034;2023-09-30T00:56:12;12.77;;;7.55;;
9436;SDS011;4757;59.334;18.034;2023-09-30T00:58:39;9.18;;;6.88;;
9436;SDS011;4757;59.334;18.034;2023-09-30T01:01:07;7.57;;;5.97;;
9436;SDS011;4757;59.334;18.034;2023-09-30T01:03:36;9.15;;;6.38;;
9436;SDS011;4757;59.334;18.034;2023-09-30T01:06:04;9.20;;;6.30;;
9436;SDS011;4757;59.334;18.034;2023-09-30T01:08:34;10.57;;;6.07;;
9436;SDS011;4757;59.334;18.034;2023-09-30T01:11:01;6.10;;;4.78;;
9436;SDS011;4757;59.334;18.034;2023-09-30T01:13:32;9.23;;;5.65;;
9436;SDS011;4757;59.334;18.034;2023-09-30T01:16:08;8.32;;;5.10;;
9436;SDS011;4757;59.334;18.034;2023-09-30T01:18:36;6.50;;;4.68;;
9436;SDS011;4757;59.334;18.034;2023-09-30T01:21:06;5.77;;;4.93;;
9436;SDS011;4757;59.334;18.034;2023-09-30T01:23:34;4.82;;;4.32;;
9436;SDS011;4757;59.334;18.034;2023-09-30T01:26:02;6.30;;;4.03;;
9436;SDS011;4757;59.334;18.034;2023-09-30T01:28:32;5.57;;;4.30;;
9436;SDS011;4757;59.334;18.034;2023-09-30T01:31:00;5.68;;;4.03;;
9436;SDS011;4757;59.334;18.034;2023-09-30T01:33:27;4.55;;;3.85;;
9436;SDS011;4757;59.334;18.034;2023-09-30T01:35:55;6.13;;;3.72;;
9436;SDS011;4757;59.334;18.034;2023-09-30T01:38:22;5.63;;;3.40;;
9436;SDS011;4757;59.334;18.034;2023-09-30T01:40:51;4.73;;;3.03;;
9436;SDS011;4757;59.334;18.034;2023-09-30T01:43:24;6.32;;;3.33;;
9436;SDS011;4757;59.334;18.034;2023-09-30T01:45:51;3.63;;;2.53;;
9436;SDS011;4757;59.334;18.034;2023-09-30T01:48:19;3.88;;;2.38;;
9436;SDS011;4757;59.334;18.034;2023-09-30T01:50:46;2.50;;;2.30;;
9436;SDS011;4757;59.334;18.034;2023-09-30T01:53:14;2.50;;;2.30;;
9436;SDS011;4757;59.334;18.034;2023-09-30T01:55:42;2.75;;;2.10;;
9436;SDS011;4757;59.334;18.034;2023-09-30T01:58:11;2.63;;;2.40;;
9436;SDS011;4757;59.334;18.034;2023-09-30T02:00:40;3.95;;;2.25;;
9436;SDS011;4757;59.334;18.034;2023-09-30T02:03:08;3.13;;;2.20;;
9436;SDS011;4757;59.334;18.034;2023-09-30T02:05:37;3.67;;;2.30;;
9436;SDS011;4757;59.334;18.034;2023-09-30T02:08:05;4.78;;;2.40;;
9436;SDS011;4757;59.334;18.034;2023-09-30T02:10:34;3.38;;;2.40;;
9436;SDS011;4757;59.334;18.034;2023-09-30T02:13:02;5.63;;;2.67;;
9436;SDS011;4757;59.334;18.034;2023-09-30T02:15:33;5.22;;;2.70;;
9436;SDS011;4757;59.334;18.034;2023-09-30T02:18:02;7.20;;;3.10;;
9436;SDS011;4757;59.334;18.034;2023-09-30T02:20:30;7.80;;;3.08;;
9436;SDS011;4757;59.334;18.034;2023-09-30T02:23:15;5.20;;;2.80;;
9436;SDS011;4757;59.334;18.034;2023-09-30T02:25:44;5.38;;;2.60;;
9436;SDS011;4757;59.334;18.034;2023-09-30T02:28:12;7.43;;;3.00;;
9436;SDS011;4757;59.334;18.034;2023-09-30T02:30:40;4.72;;;2.88;;
9436;SDS011;4757;59.334;18.034;2023-09-30T02:33:09;4.70;;;2.70;;
9436;SDS011;4757;59.334;18.034;2023-09-30T02:35:50;5.03;;;2.50;;
9436;SDS011;4757;59.334;18.034;2023-09-30T02:38:19;6.60;;;2.90;;
9436;SDS011;4757;59.334;18.034;2023-09-30T02:40:47;6.22;;;3.35;;
9436;SDS011;4757;59.334;18.034;2023-09-30T02:43:19;4.78;;;2.72;;
9436;SDS011;4757;59.334;18.034;2023-09-30T02:45:50;6.90;;;3.55;;
9436;SDS011;4757;59.334;18.034;2023-09-30T02:48:17;6.88;;;3.28;;
9436;SDS011;4757;59.334;18.034;2023-09-30T02:50:45;6.63;;;3.10;;
9436;SDS011;4757;59.334;18.034;2023-09-30T02:53:13;5.47;;;3.03;;
9436;SDS011;4757;59.334;18.034;2023-09-30T02:55:41;5.15;;;3.03;;
9436;SDS011;4757;59.334;18.034;2023-09-30T02:58:10;5.03;;;3.00;;
9436;SDS011;4757;59.334;18.034;2023-09-30T03:00:37;5.10;;;3.13;;
9436;SDS011;4757;59.334;18.034;2023-09-30T03:03:10;6.13;;;3.08;;
9436;SDS011;4757;59.334;18.034;2023-09-30T03:05:44;5.18;;;3.20;;
9436;SDS011;4757;59.334;18.034;2023-09-30T03:08:12;5.35;;;3.10;;
9436;SDS011;4757;59.334;18.034;2023-09-30T03:10:40;5.45;;;2.70;;
9436;SDS011;4757;59.334;18.034;2023-09-30T03:13:08;6.70;;;3.35;;
9436;SDS011;4757;59.334;18.034;2023-09-30T03:15:36;6.43;;;2.90;;
9436;SDS011;4757;59.334;18.034;2023-09-30T03:18:05;7.85;;;3.55;;
9436;SDS011;4757;59.334;18.034;2023-09-30T03:20:32;5.38;;;2.60;;
9436;SDS011;4757;59.334;18.034;2023-09-30T03:23:00;5.43;;;2.78;;
9436;SDS011;4757;59.334;18.034;2023-09-30T03:25:28;5.00;;;2.63;;
9436;SDS011;4757;59.334;18.034;2023-09-30T03:27:58;6.53;;;3.28;;
9436;SDS011;4757;59.334;18.034;2023-09-30T03:30:25;6.82;;;3.00;;
9436;SDS011;4757;59.334;18.034;2023-09-30T03:32:55;4.15;;;2.88;;
9436;SDS011;4757;59.334;18.034;2023-09-30T03:35:25;6.57;;;3.20;;
9436;SDS011;4757;59.334;18.034;2023-09-30T03:37:52;6.63;;;3.08;;
9436;SDS011;4757;59.334;18.034;2023-09-30T03:40:20;8.40;;;3.17;;
9436;SDS011;4757;59.334;18.034;2023-09-30T03:42:54;8.37;;;3.37;;
9436;SDS011;4757;59.334;18.034;2023-09-30T03:45:22;5.15;;;3.45;;
9436;SDS011;4757;59.334;18.034;2023-09-30T03:47:52;7.95;;;3.33;;
9436;SDS011;4757;59.334;18.034;2023-09-30T03:50:19;8.43;;;3.70;;
9436;SDS011;4757;59.334;18.034;2023-09-30T03:52:50;7.13;;;3.28;;
9436;SDS011;4757;59.334;18.034;2023-09-30T03:55:17;8.38;;;3.70;;
9436;SDS011;4757;59.334;18.034;2023-09-30T03:57:48;10.18;;;3.65;;
9436;SDS011;4757;59.334;18.034;2023-09-30T04:00:16;7.72;;;3.45;;
9436;SDS011;4757;59.334;18.034;2023-09-30T04:02:50;9.57;;;3.90;;
9436;SDS011;4757;59.334;18.034;2023-09-30T04:05:25;6.75;;;3.53;;
9436;SDS011;4757;59.334;18.034;2023-09-30T04:07:55;6.35;;;3.67;;
9436;SDS011;4757;59.334;18.034;2023-09-30T04:10:23;7.55;;;3.67;;
9436;SDS011;4757;59.334;18.034;2023-09-30T04:12:50;7.25;;;3.90;;
9436;SDS011;4757;59.334;18.034;2023-09-30T04:15:18;6.63;;;4.03;;
9436;SDS011;4757;59.334;18.034;2023-09-30T04:17:47;7.93;;;3.92;;
9436;SDS011;4757;59.334;18.034;2023-09-30T04:20:18;10.50;;;3.83;;
9436;SDS011;4757;59.334;18.034;2023-09-30T04:22:50;8.60;;;3.80;;
9436;SDS011;4757;59.334;18.034;2023-09-30T04:25:18;10.75;;;4.43;;
9436;SDS011;4757;59.334;18.034;2023-09-30T04:27:46;7.70;;;4.20;;
9436;SDS011;4757;59.334;18.034;2023-09-30T04:30:15;10.13;;;4.63;;
9436;SDS011;4757;59.334;18.034;2023-09-30T04:32:44;9.65;;;4.20;;
9436;SDS011;4757;59.334;18.034;2023-09-30T04:35:11;9.73;;;4.47;;
9436;SDS011;4757;59.334;18.034;2023-09-30T04:37:38;8.60;;;3.85;;
9436;SDS011;4757;59.334;18.034;2023-09-30T04:40:08;10.20;;;4.25;;
9436;SDS011;4757;59.334;18.034;2023-09-30T04:42:48;12.17;;;4.50;;
9436;SDS011;4757;59.334;18.034;2023-09-30T04:45:16;10.63;;;4.78;;
9436;SDS011;4757;59.334;18.034;2023-09-30T04:47:47;11.60;;;4.40;;
9436;SDS011;4757;59.334;18.034;2023-09-30T04:50:17;10.40;;;4.45;;
9436;SDS011;4757;59.334;18.034;2023-09-30T04:52:45;11.07;;;4.37;;
9436;SDS011;4757;59.334;18.034;2023-09-30T04:55:14;11.93;;;4.53;;
9436;SDS011;4757;59.334;18.034;2023-09-30T04:57:43;11.55;;;4.75;;
9436;SDS011;4757;59.334;18.034;2023-09-30T05:00:12;11.65;;;4.45;;
9436;SDS011;4757;59.334;18.034;2023-09-30T05:02:44;8.68;;;4.35;;
9436;SDS011;4757;59.334;18.034;2023-09-30T05:05:12;10.70;;;4.53;;
9436;SDS011;4757;59.334;18.034;2023-09-30T05:07:41;11.20;;;4.57;;
9436;SDS011;4757;59.334;18.034;2023-09-30T05:10:09;11.13;;;4.90;;
9436;SDS011;4757;59.334;18.034;2023-09-30T05:12:40;12.13;;;4.60;;
9436;SDS011;4757;59.334;18.034;2023-09-30T05:15:13;9.17;;;4.30;;
9436;SDS011;4757;59.334;18.034;2023-09-30T05:17:43;12.93;;;4.97;;
9436;SDS011;4757;59.334;18.034;2023-09-30T05:20:11;9.93;;;4.05;;
9436;SDS011;4757;59.334;18.034;2023-09-30T05:22:39;9.75;;;4.35;;
9436;SDS011;4757;59.334;18.034;2023-09-30T05:25:12;11.55;;;5.03;;
9436;SDS011;4757;59.334;18.034;2023-09-30T05:27:44;10.35;;;4.43;;
9436;SDS011;4757;59.334;18.034;2023-09-30T05:30:11;9.32;;;4.28;;
9436;SDS011;4757;59.334;18.034;2023-09-30T05:32:41;11.93;;;4.43;;
9436;SDS011;4757;59.334;18.034;2023-09-30T05:35:09;11.67;;;4.27;;
9436;SDS011;4757;59.334;18.034;2023-09-30T05:37:40;10.10;;;4.45;;
9436;SDS011;4757;59.334;18.034;2023-09-30T05:40:11;12.02;;;4.45;;
9436;SDS011;4757;59.334;18.034;2023-09-30T05:42:57;12.40;;;4.43;;
9436;SDS011;4757;59.334;18.034;2023-09-30T05:45:26;11.00;;;4.13;;
9436;SDS011;4757;59.334;18.034;2023-09-30T05:47:57;11.85;;;4.30;;
9436;SDS011;4757;59.334;18.034;2023-09-30T05:50:29;10.68;;;5.40;;
9436;SDS011;4757;59.334;18.034;2023-09-30T05:52:58;10.18;;;4.25;;
9436;SDS011;4757;59.334;18.034;2023-09-30T05:55:25;10.77;;;4.25;;
9436;SDS011;4757;59.334;18.034;2023-09-30T05:57:53;11.30;;;4.30;;
9436;SDS011;4757;59.334;18.034;2023-09-30T06:00:24;9.73;;;4.07;;
9436;SDS011;4757;59.334;18.034;2023-09-30T06:02:58;9.60;;;4.63;;
9436;SDS011;4757;59.334;18.034;2023-09-30T06:05:27;11.93;;;4.45;;
9436;SDS011;4757;59.334;18.034;2023-09-30T06:07:58;10.33;;;4.50;;
9436;SDS011;4757;59.334;18.034;2023-09-30T06:10:41;11.55;;;3.85;;
9436;SDS011;4757;59.334;18.034;2023-09-30T06:13:10;10.95;;;4.68;;
9436;SDS011;4757;59.334;18.034;2023-09-30T06:15:41;10.98;;;4.47;;
9436;SDS011;4757;59.334;18.034;2023-09-30T06:18:10;10.37;;;4.10;;
9436;SDS011;4757;59.334;18.034;2023-09-30T06:20:40;12.00;;;4.07;;
9436;SDS011;4757;59.334;18.034;2023-09-30T06:23:09;8.90;;;4.10;;
9436;SDS011;4757;59.334;18.034;2023-09-30T06:25:36;12.15;;;4.30;;
9436;SDS011;4757;59.334;18.034;2023-09-30T06:28:04;10.20;;;4.45;;
9436;SDS011;4757;59.334;18.034;2023-09-30T06:30:31;12.95;;;4.25;;
9436;SDS011;4757;59.334;18.034;2023-09-30T06:33:03;12.70;;;4.00;;
9436;SDS011;4757;59.334;18.034;2023-09-30T06:35:32;11.70;;;4.50;;
9436;SDS011;4757;59.334;18.034;2023-09-30T06:38:05;8.95;;;3.50;;
9436;SDS011;4757;59.334;18.034;2023-09-30T06:40:34;10.27;;;3.97;;
9436;SDS011;4757;59.334;18.034;2023-09-30T06:43:06;8.25;;;4.13;;
9436;SDS011;4757;59.334;18.034;2023-09-30T06:45:35;11.53;;;4.20;;
9436;SDS011;4757;59.334;18.034;2023-09-30T06:48:09;9.05;;;4.13;;
9436;SDS011;4757;59.334;18.034;2023-09-30T06:50:43;8.75;;;3.72;;
9436;SDS011;4757;59.334;18.034;2023-09-30T06:53:11;10.65;;;4.65;;
9436;SDS011;4757;59.334;18.034;2023-09-30T06:55:39;11.60;;;4.10;;
9436;SDS011;4757;59.334;18.034;2023-09-30T06:58:07;8.48;;;3.65;;
9436;SDS011;4757;59.334;18.034;2023-09-30T07:00:37;9.30;;;4.30;;
9436;SDS011;4757;59.334;18.034;2023-09-30T07:03:07;10.47;;;4.93;;
9436;SDS011;4757;59.334;18.034;2023-09-30T07:05:36;12.13;;;4.20;;
9436;SDS011;4757;59.334;18.034;2023-09-30T07:08:07;9.83;;;3.77;;
9436;SDS011;4757;59.334;18.034;2023-09-30T07:10:34;11.32;;;3.85;;
9436;SDS011;4757;59.334;18.034;2023-09-30T07:13:02;11.88;;;4.38;;
9436;SDS011;4757;59.334;18.034;2023-09-30T07:15:32;13.30;;;4.65;;
9436;SDS011;4757;59.334;18.034;2023-09-30T07:18:03;8.90;;;3.88;;
9436;SDS011;4757;59.334;18.034;2023-09-30T07:20:31;9.85;;;3.63;;
9436;SDS011;4757;59.334;18.034;2023-09-30T07:22:59;12.35;;;4.00;;
9436;SDS011;4757;59.334;18.034;2023-09-30T07:25:46;10.25;;;3.88;;
9436;SDS011;4757;59.334;18.034;2023-09-30T07:28:14;11.10;;;4.18;;
9436;SDS011;4757;59.334;18.034;2023-09-30T07:30:49;8.30;;;3.45;;
9436;SDS011;4757;59.334;18.034;2023-09-30T07:33:17;9.05;;;4.22;;
9436;SDS011;4757;59.334;18.034;2023-09-30T07:35:45;11.95;;;4.57;;
9436;SDS011;4757;59.334;18.034;2023-09-30T07:38:13;9.75;;;3.85;;
9436;SDS011;4757;59.334;18.034;2023-09-30T07:40:44;11.20;;;3.80;;
9436;SDS011;4757;59.334;18.034;2023-09-30T07:43:11;9.13;;;3.72;;
9436;SDS011;4757;59.334;18.034;2023-09-30T07:45:44;11.68;;;4.13;;
9436;SDS011;4757;59.334;18.034;2023-09-30T07:48:11;11.30;;;4.37;;
9436;SDS011;4757;59.334;18.034;2023-09-30T07:50:54;8.40;;;3.55;;
9436;SDS011;4757;59.334;18.034;2023-09-30T07:53:35;8.93;;;3.67;;
9436;SDS011;4757;59.334;18.034;2023-09-30T07:56:07;10.95;;;4.07;;
9436;SDS011;4757;59.334;18.034;2023-09-30T07:58:38;10.68;;;4.07;;
9436;SDS011;4757;59.334;18.034;2023-09-30T08:01:07;8.70;;;4.07;;
9436;SDS011;4757;59.334;18.034;2023-09-30T08:03:37;7.68;;;3.15;;
9436;SDS011;4757;59.334;18.034;2023-09-30T08:06:07;8.98;;;3.60;;
9436;SDS011;4757;59.334;18.034;2023-09-30T08:08:37;12.45;;;3.95;;
9436;SDS011;4757;59.334;18.034;2023-09-30T08:11:22;10.55;;;3.95;;
9436;SDS011;4757;59.334;18.034;2023-09-30T08:13:54;10.55;;;4.35;;
9436;SDS011;4757;59.334;18.034;2023-09-30T08:16:21;11.18;;;3.70;;
9436;SDS011;4757;59.334;18.034;2023-09-30T08:18:49;11.85;;;4.15;;
9436;SDS011;4757;59.334;18.034;2023-09-30T08:21:17;12.77;;;3.40;;
9436;SDS011;4757;59.334;18.034;2023-09-30T08:23:49;12.75;;;4.18;;
9436;SDS011;4757;59.334;18.034;2023-09-30T08:26:24;11.45;;;3.60;;
9436;SDS011;4757;59.334;18.034;2023-09-30T08:28:59;12.10;;;4.07;;
9436;SDS011;4757;59.334;18.034;2023-09-30T08:31:27;11.38;;;3.70;;
9436;SDS011;4757;59.334;18.034;2023-09-30T08:34:11;12.43;;;4.20;;
9436;SDS011;4757;59.334;18.034;2023-09-30T08:36:43;12.65;;;4.20;;
9436;SDS011;4757;59.334;18.034;2023-09-30T08:39:13;12.73;;;4.18;;
9436;SDS011;4757;59.334;18.034;2023-09-30T08:41:44;12.17;;;4.57;;
9436;SDS011;4757;59.334;18.034;2023-09-30T08:44:15;10.07;;;3.67;;
9436;SDS011;4757;59.334;18.034;2023-09-30T08:46:45;11.73;;;3.90;;
9436;SDS011;4757;59.334;18.034;2023-09-30T08:49:17;10.95;;;3.55;;
9436;SDS011;4757;59.334;18.034;2023-09-30T08:52:01;9.95;;;3.50;;
9436;SDS011;4757;59.334;18.034;2023-09-30T08:54:45;11.85;;;4.60;;
9436;SDS011;4757;59.334;18.034;2023-09-30T08:57:30;10.60;;;3.93;;
9436;SDS011;4757;59.334;18.034;2023-09-30T09:04:31;9.85;;;3.90;;
9436;SDS011;4757;59.334;18.034;2023-09-30T09:07:05;11.27;;;3.53;;
9436;SDS011;4757;59.334;18.034;2023-09-30T09:09:38;11.80;;;4.30;;
9436;SDS011;4757;59.334;18.034;2023-09-30T09:12:06;14.75;;;4.35;;
9436;SDS011;4757;59.334;18.034;2023-09-30T09:14:46;12.18;;;4.32;;
9436;SDS011;4757;59.334;18.034;2023-09-30T09:17:13;10.48;;;4.10;;
9436;SDS011;4757;59.334;18.034;2023-09-30T09:19:43;11.18;;;4.25;;
9436;SDS011;4757;59.334;18.034;2023-09-30T09:22:10;12.80;;;4.40;;
9436;SDS011;4757;59.334;18.034;2023-09-30T09:24:38;11.07;;;4.10;;
9436;SDS011;4757;59.334;18.034;2023-09-30T09:27:06;8.90;;;3.67;;
9436;SDS011;4757;59.334;18.034;2023-09-30T09:29:37;11.52;;;3.85;;
9436;SDS011;4757;59.334;18.034;2023-09-30T09:32:07;10.85;;;3.60;;
9436;SDS011;4757;59.334;18.034;2023-09-30T09:34:55;9.83;;;3.97;;
9436;SDS011;4757;59.334;18.034;2023-09-30T09:37:27;12.15;;;3.97;;
9436;SDS011;4757;59.334;18.034;2023-09-30T09:40:01;10.20;;;3.90;;
9436;SDS011;4757;59.334;18.034;2023-09-30T09:42:31;9.10;;;3.78;;
9436;SDS011;4757;59.334;18.034;2023-09-30T09:45:03;9.30;;;3.60;;
9436;SDS011;4757;59.334;18.034;2023-09-30T09:47:35;9.73;;;3.65;;
9436;SDS011;4757;59.334;18.034;2023-09-30T09:50:04;8.50;;;3.55;;
9436;SDS011;4757;59.334;18.034;2023-09-30T09:52:35;10.90;;;3.78;;
9436;SDS011;4757;59.334;18.034;2023-09-30T09:55:19;8.43;;;3.45;;
9436;SDS011;4757;59.334;18.034;2023-09-30T09:57:51;8.35;;;3.58;;
9436;SDS011;4757;59.334;18.034;2023-09-30T10:00:19;8.88;;;2.97;;
9436;SDS011;4757;59.334;18.034;2023-09-30T10:02:52;8.27;;;3.60;;
9436;SDS011;4757;59.334;18.034;2023-09-30T10:05:20;9.57;;;3.40;;
9436;SDS011;4757;59.334;18.034;2023-09-30T10:07:57;8.57;;;3.28;;
9436;SDS011;4757;59.334;18.034;2023-09-30T10:10:30;8.77;;;3.50;;
9436;SDS011;4757;59.334;18.034;2023-09-30T10:13:01;9.80;;;3.17;;
9436;SDS011;4757;59.334;18.034;2023-09-30T10:18:02;7.00;;;3.00;;
9436;SDS011;4757;59.334;18.034;2023-09-30T10:20:41;9.52;;;3.10;;
9436;SDS011;4757;59.334;18.034;2023-09-30T10:23:28;9.60;;;3.03;;
9436;SDS011;4757;59.334;18.034;2023-09-30T10:28:41;8.63;;;3.80;;
9436;SDS011;4757;59.334;18.034;2023-09-30T10:31:14;9.18;;;4.43;;
9436;SDS011;4757;59.334;18.034;2023-09-30T10:36:35;7.88;;;3.20;;
9436;SDS011;4757;59.334;18.034;2023-09-30T10:39:12;10.07;;;3.65;;
9436;SDS011;4757;59.334;18.034;2023-09-30T10:46:56;10.05;;;3.63;;
9436;SDS011;4757;59.334;18.034;2023-09-30T10:49:46;9.85;;;3.53;;
9436;SDS011;4757;59.334;18.034;2023-09-30T10:52:21;11.10;;;4.00;;
9436;SDS011;4757;59.334;18.034;2023-09-30T10:55:05;13.07;;;3.92;;
9436;SDS011;4757;59.334;18.034;2023-09-30T10:58:13;9.40;;;3.10;;
9436;SDS011;4757;59.334;18.034;2023-09-30T11:00:51;8.27;;;3.13;;
9436;SDS011;4757;59.334;18.034;2023-09-30T11:06:15;7.73;;;2.60;;
9436;SDS011;4757;59.334;18.034;2023-09-30T11:11:38;10.85;;;3.25;;
9436;SDS011;4757;59.334;18.034;2023-09-30T11:14:18;8.80;;;3.40;;
9436;SDS011;4757;59.334;18.034;2023-09-30T11:16:56;10.70;;;3.78;;
9436;SDS011;4757;59.334;18.034;2023-09-30T11:19:47;7.63;;;3.03;;
9436;SDS011;4757;59.334;18.034;2023-09-30T11:22:14;7.60;;;3.13;;
9436;SDS011;4757;59.334;18.034;2023-09-30T11:24:42;9.35;;;3.28;;
9436;SDS011;4757;59.334;18.034;2023-09-30T11:27:24;9.68;;;3.38;;
9436;SDS011;4757;59.334;18.034;2023-09-30T11:29:53;9.27;;;3.05;;
9436;SDS011;4757;59.334;18.034;2023-09-30T11:32:24;7.95;;;3.30;;
9436;SDS011;4757;59.334;18.034;2023-09-30T11:35:09;7.43;;;3.20;;
9436;SDS011;4757;59.334;18.034;2023-09-30T11:37:57;9.03;;;3.33;;
9436;SDS011;4757;59.334;18.034;2023-09-30T11:40:35;9.98;;;3.13;;
9436;SDS011;4757;59.334;18.034;2023-09-30T11:43:08;7.88;;;3.47;;
9436;SDS011;4757;59.334;18.034;2023-09-30T11:45:41;8.07;;;3.38;;
9436;SDS011;4757;59.334;18.034;2023-09-30T11:48:30;8.60;;;4.03;;
9436;SDS011;4757;59.334;18.034;2023-09-30T11:51:01;11.00;;;4.22;;
9436;SDS011;4757;59.334;18.034;2023-09-30T11:53:31;7.82;;;3.22;;
9436;SDS011;4757;59.334;18.034;2023-09-30T11:56:28;4.93;;;2.75;;
9436;SDS011;4757;59.334;18.034;2023-09-30T11:58:56;9.02;;;3.05;;
9436;SDS011;4757;59.334;18.034;2023-09-30T12:01:32;5.25;;;2.50;;
9436;SDS011;4757;59.334;18.034;2023-09-30T12:04:00;7.27;;;2.47;;
9436;SDS011;4757;59.334;18.034;2023-09-30T12:06:32;8.70;;;3.03;;
9436;SDS011;4757;59.334;18.034;2023-09-30T12:09:17;4.75;;;2.08;;
9436;SDS011;4757;59.334;18.034;2023-09-30T12:11:57;4.93;;;2.13;;
9436;SDS011;4757;59.334;18.034;2023-09-30T12:14:25;5.20;;;2.00;;
9436;SDS011;4757;59.334;18.034;2023-09-30T12:17:19;5.43;;;1.80;;
9436;SDS011;4757;59.334;18.034;2023-09-30T12:19:52;6.85;;;2.10;;
9436;SDS011;4757;59.334;18.034;2023-09-30T12:28:17;4.07;;;1.90;;
9436;SDS011;4757;59.334;18.034;2023-09-30T12:30:50;4.50;;;2.30;;
9436;SDS011;4757;59.334;18.034;2023-09-30T12:33:27;4.38;;;2.38;;
9436;SDS011;4757;59.334;18.034;2023-09-30T12:36:01;3.53;;;1.83;;
9436;SDS011;4757;59.334;18.034;2023-09-30T12:38:31;3.17;;;1.60;;
9436;SDS011;4757;59.334;18.034;2023-09-30T12:40:59;4.00;;;1.67;;
9436;SDS011;4757;59.334;18.034;2023-09-30T12:43:32;3.25;;;1.92;;
9436;SDS011;4757;59.334;18.034;2023-09-30T12:46:05;3.20;;;1.70;;
9436;SDS011;4757;59.334;18.034;2023-09-30T12:48:48;3.53;;;1.90;;
9436;SDS011;4757;59.334;18.034;2023-09-30T12:51:18;4.80;;;1.85;;
9436;SDS011;4757;59.334;18.034;2023-09-30T12:53:49;4.13;;;2.27;;
9436;SDS011;4757;59.334;18.034;2023-09-30T12:56:16;3.95;;;1.90;;
9436;SDS011;4757;59.334;18.034;2023-09-30T12:58:44;4.22;;;1.67;;
9436;SDS011;4757;59.334;18.034;2023-09-30T13:01:28;3.70;;;1.90;;
9436;SDS011;4757;59.334;18.034;2023-09-30T13:04:02;6.75;;;2.03;;
9436;SDS011;4757;59.334;18.034;2023-09-30T13:06:35;3.85;;;1.52;;
9436;SDS011;4757;59.334;18.034;2023-09-30T13:09:09;3.23;;;1.53;;
9436;SDS011;4757;59.334;18.034;2023-09-30T13:11:46;3.58;;;1.63;;
9436;SDS011;4757;59.334;18.034;2023-09-30T13:14:14;3.25;;;1.60;;
9436;SDS011;4757;59.334;18.034;2023-09-30T13:16:48;4.05;;;1.80;;
9436;SDS011;4757;59.334;18.034;2023-09-30T13:19:20;8.07;;;2.03;;
9436;SDS011;4757;59.334;18.034;2023-09-30T13:21:48;3.47;;;1.73;;
9436;SDS011;4757;59.334;18.034;2023-09-30T13:24:19;4.00;;;2.03;;
9436;SDS011;4757;59.334;18.034;2023-09-30T13:26:48;4.47;;;1.83;;
9436;SDS011;4757;59.334;18.034;2023-09-30T13:29:20;5.20;;;1.80;;
9436;SDS011;4757;59.334;18.034;2023-09-30T13:31:49;4.37;;;2.53;;
9436;SDS011;4757;59.334;18.034;2023-09-30T13:34:16;3.25;;;1.60;;
9436;SDS011;4757;59.334;18.034;2023-09-30T13:36:43;4.03;;;1.70;;
9436;SDS011;4757;59.334;18.034;2023-09-30T13:39:10;4.38;;;1.70;;
9436;SDS011;4757;59.334;18.034;2023-09-30T13:41:40;4.90;;;1.52;;
9436;SDS011;4757;59.334;18.034;2023-09-30T13:44:07;5.00;;;1.58;;
9436;SDS011;4757;59.334;18.034;2023-09-30T13:46:34;4.18;;;1.83;;
9436;SDS011;4757;59.334;18.034;2023-09-30T13:49:04;3.15;;;1.73;;
9436;SDS011;4757;59.334;18.034;2023-09-30T13:51:31;4.53;;;1.90;;
9436;SDS011;4757;59.334;18.034;2023-09-30T13:53:59;3.88;;;1.77;;
9436;SDS011;4757;59.334;18.034;2023-09-30T13:56:26;4.35;;;1.95;;
9436;SDS011;4757;59.334;18.034;2023-09-30T13:58:55;3.25;;;1.52;;
9436;SDS011;4757;59.334;18.034;2023-09-30T14:01:25;5.78;;;2.33;;
9436;SDS011;4757;59.334;18.034;2023-09-30T14:03:54;3.22;;;1.80;;
9436;SDS011;4757;59.334;18.034;2023-09-30T14:06:22;4.63;;;1.90;;
9436;SDS011;4757;59.334;18.034;2023-09-30T14:08:49;3.90;;;1.70;;
9436;SDS011;4757;59.334;18.034;2023-09-30T14:11:17;6.65;;;1.63;;
9436;SDS011;4757;59.334;18.034;2023-09-30T14:13:44;5.30;;;1.83;;
9436;SDS011;4757;59.334;18.034;2023-09-30T14:16:11;2.45;;;1.80;;
9436;SDS011;4757;59.334;18.034;2023-09-30T14:18:39;4.60;;;1.92;;
9436;SDS011;4757;59.334;18.034;2023-09-30T14:21:06;4.85;;;2.47;;
9436;SDS011;4757;59.334;18.034;2023-09-30T14:23:33;6.20;;;2.60;;
9436;SDS011;4757;59.334;18.034;2023-09-30T14:26:04;4.15;;;2.40;;
9436;SDS011;4757;59.334;18.034;2023-09-30T14:28:37;4.97;;;1.63;;
9436;SDS011;4757;59.334;18.034;2023-09-30T14:31:04;5.10;;;2.17;;
9436;SDS011;4757;59.334;18.034;2023-09-30T14:33:32;5.20;;;1.60;;
9436;SDS011;4757;59.334;18.034;2023-09-30T14:36:00;4.32;;;1.80;;
9436;SDS011;4757;59.334;18.034;2023-09-30T14:38:28;4.93;;;1.70;;
9436;SDS011;4757;59.334;18.034;2023-09-30T14:40:55;4.53;;;2.20;;
9436;SDS011;4757;59.334;18.034;2023-09-30T14:43:22;3.70;;;1.67;;
9436;SDS011;4757;59.334;18.034;2023-09-30T14:45:49;5.88;;;2.00;;
9436;SDS011;4757;59.334;18.034;2023-09-30T14:48:16;3.58;;;2.00;;
9436;SDS011;4757;59.334;18.034;2023-09-30T14:50:47;4.80;;;1.98;;
9436;SDS011;4757;59.334;18.034;2023-09-30T14:53:16;4.72;;;2.17;;
9436;SDS011;4757;59.334;18.034;2023-09-30T14:55:44;4.25;;;1.95;;
9436;SDS011;4757;59.334;18.034;2023-09-30T14:58:12;6.20;;;3.08;;
9436;SDS011;4757;59.334;18.034;2023-09-30T15:00:39;4.50;;;2.08;;
9436;SDS011;4757;59.334;18.034;2023-09-30T15:03:07;4.13;;;1.80;;
9436;SDS011;4757;59.334;18.034;2023-09-30T15:05:34;5.18;;;2.00;;
9436;SDS011;4757;59.334;18.034;2023-09-30T15:08:02;4.20;;;1.90;;
9436;SDS011;4757;59.334;18.034;2023-09-30T15:10:29;4.40;;;1.90;;
9436;SDS011;4757;59.334;18.034;2023-09-30T15:13:04;5.45;;;1.83;;
9436;SDS011;4757;59.334;18.034;2023-09-30T15:15:37;4.80;;;2.28;;
9436;SDS011;4757;59.334;18.034;2023-09-30T15:18:10;3.42;;;1.50;;
9436;SDS011;4757;59.334;18.034;2023-09-30T15:20:40;4.63;;;1.83;;
9436;SDS011;4757;59.334;18.034;2023-09-30T15:23:46;3.85;;;1.85;;
9436;SDS011;4757;59.334;18.034;2023-09-30T15:26:59;5.40;;;2.15;;
9436;SDS011;4757;59.334;18.034;2023-09-30T15:30:11;5.40;;;1.73;;
9436;SDS011;4757;59.334;18.034;2023-09-30T15:33:01;5.10;;;2.40;;
9436;SDS011;4757;59.334;18.034;2023-09-30T15:35:42;4.28;;;2.05;;
9436;SDS011;4757;59.334;18.034;2023-09-30T15:38:10;3.45;;;1.60;;
9436;SDS011;4757;59.334;18.034;2023-09-30T15:40:58;3.95;;;1.98;;
9436;SDS011;4757;59.334;18.034;2023-09-30T15:43:25;5.68;;;2.15;;
9436;SDS011;4757;59.334;18.034;2023-09-30T15:45:55;4.38;;;2.03;;
9436;SDS011;4757;59.334;18.034;2023-09-30T15:48:23;5.00;;;2.05;;
9436;SDS011;4757;59.334;18.034;2023-09-30T15:50:56;3.58;;;1.95;;
9436;SDS011;4757;59.334;18.034;2023-09-30T15:53:25;4.70;;;2.47;;
9436;SDS011;4757;59.334;18.034;2023-09-30T15:56:00;3.65;;;1.95;;